createdAt,value
2023-04-28T00:00:36.597Z,74.35
2023-04-28T00:01:39.349Z,42.00
2023-04-28T00:02:41.615Z,47.15
2023-04-28T00:03:44.726Z,40.38
2023-04-28T00:04:47.655Z,42.65
2023-04-28T00:05:50.656Z,37.90
2023-04-28T00:06:52.515Z,42.60
2023-04-28T00:07:56.609Z,41.38
2023-04-28T00:08:58.465Z,45.65
2023-04-28T00:10:01.214Z,38.88
2023-04-28T00:11:03.051Z,40.30
2023-04-28T00:12:06.636Z,38.83
2023-04-28T00:13:08.440Z,34.75
2023-04-28T00:14:11.177Z,36.22
2023-04-28T00:15:16.967Z,38.67
2023-04-28T00:16:19.797Z,40.72
2023-04-28T00:17:21.690Z,39.33
2023-04-28T00:18:24.500Z,45.38
2023-04-28T00:19:26.336Z,42.95
2023-04-28T00:20:29.096Z,40.40
2023-04-28T00:21:32.060Z,37.92
2023-04-28T00:22:35.026Z,48.95
2023-04-28T00:23:38.185Z,53.33
2023-04-28T00:24:41.850Z,51.00
2023-04-28T00:25:43.655Z,52.17
2023-04-28T00:26:46.385Z,51.17
2023-04-28T00:27:48.250Z,53.00
2023-04-28T00:28:51.096Z,51.15
2023-04-28T00:29:53.727Z,57.17
2023-04-28T00:30:56.489Z,49.50
2023-04-28T00:31:58.361Z,52.58
2023-04-28T00:33:01.232Z,49.50
2023-04-28T00:34:03.093Z,49.22
2023-04-28T00:35:06.999Z,52.60
2023-04-28T00:36:09.771Z,45.70
2023-04-28T00:37:12.895Z,49.80
2023-04-28T00:38:14.778Z,48.85
2023-04-28T00:39:19.388Z,59.78
2023-04-28T00:40:21.491Z,61.50
2023-04-28T00:41:24.419Z,101.32
2023-04-28T00:42:26.325Z,102.97
2023-04-28T00:43:29.072Z,120.43
2023-04-28T00:44:30.875Z,64.78
2023-04-28T00:45:33.844Z,72.93
2023-04-28T00:46:35.813Z,99.65
2023-04-28T00:47:39.071Z,110.65
2023-04-28T00:48:40.975Z,78.15
2023-04-28T00:49:43.745Z,68.70
2023-04-28T00:50:46.335Z,71.35
2023-04-28T00:51:49.060Z,64.47
2023-04-28T00:52:51.520Z,65.30
2023-04-28T00:53:54.340Z,62.80
2023-04-28T00:54:57.644Z,68.40
2023-04-28T00:56:01.107Z,65.93
2023-04-28T00:57:03.193Z,61.55
2023-04-28T00:58:06.334Z,63.13
2023-04-28T00:59:08.735Z,68.35
2023-04-28T01:00:12.372Z,61.50
2023-04-28T01:01:14.222Z,64.95
2023-04-28T01:02:18.378Z,65.60
2023-04-28T01:03:20.549Z,65.28
2023-04-28T01:04:24.115Z,62.63
2023-04-28T01:05:26.622Z,60.92
2023-04-28T01:06:30.848Z,67.65
2023-04-28T01:07:35.123Z,91.38
2023-04-28T01:08:40.105Z,91.45
2023-04-28T01:09:48.958Z,87.53
2023-04-28T01:10:56.750Z,93.95
2023-04-28T01:12:19.447Z,61.45
2023-04-28T01:13:27.354Z,62.03
2023-04-28T01:14:30.101Z,59.60
2023-04-28T01:15:32.073Z,61.13
2023-04-28T01:16:35.329Z,68.90
2023-04-28T01:17:37.936Z,65.72
2023-04-28T01:18:44.185Z,69.45
2023-04-28T01:19:46.090Z,63.22
2023-04-28T01:20:48.921Z,66.22
2023-04-28T01:21:51.014Z,63.03
2023-04-28T01:22:58.081Z,65.10
2023-04-28T01:24:01.678Z,62.58
2023-04-28T01:25:05.118Z,62.30
2023-04-28T01:26:07.452Z,61.60
2023-04-28T01:27:10.259Z,57.08
2023-04-28T01:28:13.744Z,46.30
2023-04-28T01:29:16.556Z,54.13
2023-04-28T01:30:18.666Z,47.47
2023-04-28T01:31:21.529Z,51.33
2023-04-28T01:32:23.473Z,43.95
2023-04-28T01:33:26.306Z,49.92
2023-04-28T01:34:28.051Z,52.38
2023-04-28T01:35:31.148Z,45.97
2023-04-28T01:36:35.305Z,48.55
2023-04-28T01:37:40.065Z,46.65
2023-04-28T01:38:41.968Z,48.80
2023-04-28T01:39:46.036Z,51.28
2023-04-28T01:40:47.819Z,47.63
2023-04-28T01:41:50.624Z,48.42
2023-04-28T01:42:52.620Z,46.95
2023-04-28T01:43:55.398Z,48.28
2023-04-28T01:44:57.249Z,44.15
2023-04-28T01:46:00.022Z,47.13
2023-04-28T01:47:01.863Z,48.65
2023-04-28T01:48:04.883Z,43.97
2023-04-28T01:49:06.740Z,48.28
2023-04-28T01:50:10.579Z,43.75
2023-04-28T01:51:12.338Z,46.90
2023-04-28T01:52:15.155Z,43.92
2023-04-28T01:53:20.586Z,42.17
2023-04-28T01:54:23.942Z,43.38
2023-04-28T01:55:27.294Z,44.72
2023-04-28T01:56:30.504Z,40.22
2023-04-28T01:57:35.415Z,45.75
2023-04-28T01:58:38.444Z,50.92
2023-04-28T01:59:41.364Z,41.00
2023-04-28T02:00:44.183Z,49.35
2023-04-28T02:01:46.309Z,49.13
2023-04-28T02:02:49.169Z,45.33
2023-04-28T02:03:52.092Z,38.95
2023-04-28T02:04:55.187Z,50.67
2023-04-28T02:05:57.144Z,50.88
2023-04-28T02:07:00.013Z,45.25
2023-04-28T02:08:01.983Z,53.80
2023-04-28T02:09:05.712Z,44.90
2023-04-28T02:10:10.132Z,46.45
2023-04-28T02:11:14.421Z,44.75
2023-04-28T02:12:17.417Z,46.72
2023-04-28T02:13:20.209Z,79.28
2023-04-28T02:14:22.078Z,70.65
2023-04-28T02:15:24.926Z,68.47
2023-04-28T02:16:28.498Z,72.50
2023-04-28T02:17:31.376Z,79.90
2023-04-28T02:18:33.209Z,71.72
2023-04-28T02:19:36.385Z,66.28
2023-04-28T02:20:38.548Z,66.50
2023-04-28T02:21:44.026Z,69.80
2023-04-28T02:22:45.850Z,70.70
2023-04-28T02:23:48.677Z,66.65
2023-04-28T02:24:50.693Z,65.75
2023-04-28T02:26:01.812Z,62.58
2023-04-28T02:27:05.665Z,65.35
2023-04-28T02:28:08.435Z,62.38
2023-04-28T02:29:10.260Z,60.92
2023-04-28T02:30:13.747Z,57.22
2023-04-28T02:31:15.611Z,50.80
2023-04-28T02:32:18.353Z,52.97
2023-04-28T02:33:20.160Z,49.80
2023-04-28T02:34:22.916Z,51.75
2023-04-28T02:35:24.767Z,50.45
2023-04-28T02:36:28.558Z,50.38
2023-04-28T02:37:30.447Z,51.90
2023-04-28T02:38:33.435Z,54.65
2023-04-28T02:39:35.531Z,48.95
2023-04-28T02:40:38.373Z,48.65
2023-04-28T02:41:40.166Z,52.45
2023-04-28T02:42:46.195Z,46.83
2023-04-28T02:43:48.028Z,49.60
2023-04-28T02:44:50.786Z,46.35
2023-04-28T02:45:52.902Z,46.47
2023-04-28T02:46:55.785Z,51.40
2023-04-28T02:48:03.513Z,48.13
2023-04-28T02:49:06.381Z,50.88
2023-04-28T02:50:09.378Z,47.67
2023-04-28T02:51:14.080Z,49.47
2023-04-28T02:52:16.303Z,52.53
2023-04-28T02:53:19.160Z,49.10
2023-04-28T02:54:27.481Z,51.45
2023-04-28T02:55:32.143Z,45.17
2023-04-28T02:56:35.445Z,50.35
2023-04-28T02:57:39.054Z,50.08
2023-04-28T02:58:42.351Z,48.15
2023-04-28T02:59:45.099Z,47.70
2023-04-28T03:00:47.248Z,51.95
2023-04-28T03:01:51.727Z,50.40
2023-04-28T03:02:53.717Z,48.65
2023-04-28T03:03:56.907Z,47.67
2023-04-28T03:04:59.026Z,44.75
2023-04-28T03:06:01.823Z,47.20
2023-04-28T03:07:03.668Z,47.80
2023-04-28T03:08:07.522Z,47.25
2023-04-28T03:09:09.986Z,44.03
2023-04-28T03:10:12.911Z,46.97
2023-04-28T03:11:14.863Z,51.42
2023-04-28T03:12:17.689Z,46.13
2023-04-28T03:13:21.600Z,48.13
2023-04-28T03:14:26.856Z,46.13
2023-04-28T03:15:29.722Z,43.08
2023-04-28T03:16:33.611Z,41.40
2023-04-28T03:17:36.635Z,49.78
2023-04-28T03:18:39.436Z,43.17
2023-04-28T03:19:41.318Z,43.70
2023-04-28T03:20:44.236Z,42.63
2023-04-28T03:21:46.237Z,40.72
2023-04-28T03:22:50.977Z,39.97
2023-04-28T03:23:53.622Z,41.42
2023-04-28T03:24:56.458Z,38.55
2023-04-28T03:25:58.688Z,38.63
2023-04-28T03:27:03.635Z,34.22
2023-04-28T03:28:05.859Z,38.72
2023-04-28T03:29:08.618Z,39.45
2023-04-28T03:30:12.644Z,50.60
2023-04-28T03:31:15.391Z,49.13
2023-04-28T03:32:17.317Z,47.97
2023-04-28T03:33:20.400Z,43.05
2023-04-28T03:34:22.506Z,47.70
2023-04-28T03:35:25.504Z,44.67
2023-04-28T03:36:28.661Z,40.67
2023-04-28T03:37:34.936Z,40.58
2023-04-28T03:38:37.840Z,38.40
2023-04-28T03:39:39.713Z,45.63
2023-04-28T03:40:42.682Z,39.05
2023-04-28T03:41:50.113Z,47.17
2023-04-28T03:43:25.026Z,40.30
2023-04-28T03:44:43.081Z,44.08
2023-04-28T03:45:47.483Z,41.20
2023-04-28T03:46:49.510Z,44.17
2023-04-28T03:47:52.510Z,43.83
2023-04-28T03:48:54.393Z,40.65
2023-04-28T03:49:58.854Z,42.35
2023-04-28T03:51:00.764Z,41.88
2023-04-28T03:52:04.368Z,40.13
2023-04-28T03:53:06.534Z,35.95
2023-04-28T03:54:09.648Z,43.00
2023-04-28T03:55:11.936Z,49.40
2023-04-28T03:56:14.786Z,51.38
2023-04-28T03:57:16.763Z,38.45
2023-04-28T03:58:19.701Z,68.05
2023-04-28T03:59:21.711Z,63.58
2023-04-28T04:00:25.719Z,72.32
2023-04-28T04:01:30.613Z,59.15
2023-04-28T04:02:33.543Z,61.50
2023-04-28T04:03:35.670Z,66.15
2023-04-28T04:04:38.779Z,73.35
2023-04-28T04:05:41.419Z,62.33
2023-04-28T04:06:44.301Z,69.05
2023-04-28T04:07:47.032Z,67.13
2023-04-28T04:08:49.868Z,58.40
2023-04-28T04:09:51.821Z,62.88
2023-04-28T04:10:55.854Z,64.70
2023-04-28T04:11:58.808Z,61.80
2023-04-28T04:13:01.783Z,54.30
2023-04-28T04:14:03.614Z,53.28
2023-04-28T04:15:07.820Z,53.45
2023-04-28T04:16:10.087Z,45.92
2023-04-28T04:17:14.274Z,56.80
2023-04-28T04:18:16.383Z,63.42
2023-04-28T04:19:39.509Z,49.53
2023-04-28T04:20:41.280Z,49.58
2023-04-28T04:21:44.086Z,65.32
2023-04-28T04:22:45.945Z,61.92
2023-04-28T04:23:49.853Z,54.10
2023-04-28T04:24:51.711Z,53.35
2023-04-28T04:25:54.494Z,56.10
2023-04-28T04:26:56.273Z,51.80
2023-04-28T04:28:09.594Z,42.28
2023-04-28T04:29:11.408Z,42.88
2023-04-28T04:30:14.523Z,47.03
2023-04-28T04:31:16.346Z,40.85
2023-04-28T04:32:20.861Z,38.65
2023-04-28T04:33:23.366Z,41.28
2023-04-28T04:34:26.280Z,38.72
2023-04-28T04:35:28.506Z,37.90
2023-04-28T04:36:31.571Z,35.25
2023-04-28T04:37:33.936Z,38.60
2023-04-28T04:38:38.286Z,34.08
2023-04-28T04:39:47.931Z,36.30
2023-04-28T04:40:51.644Z,37.72
2023-04-28T04:41:53.482Z,36.47
2023-04-28T04:43:25.415Z,36.85
2023-04-28T04:44:28.012Z,38.95
2023-04-28T04:45:31.925Z,36.97
2023-04-28T04:46:33.797Z,33.78
2023-04-28T04:47:38.015Z,34.65
2023-04-28T04:48:39.839Z,34.50
2023-04-28T04:49:43.015Z,35.58
2023-04-28T04:50:45.021Z,36.28
2023-04-28T04:51:48.261Z,32.10
2023-04-28T04:52:50.148Z,35.85
2023-04-28T04:53:53.897Z,36.25
2023-04-28T04:54:56.450Z,35.90
2023-04-28T04:56:00.539Z,41.33
2023-04-28T04:57:02.552Z,37.58
2023-04-28T04:58:37.830Z,36.88
2023-04-28T04:59:59.868Z,33.13
2023-04-28T05:01:03.332Z,31.13
2023-04-28T05:02:05.161Z,34.15
2023-04-28T05:03:09.893Z,28.38
2023-04-28T05:04:12.167Z,25.77
2023-04-28T05:05:21.476Z,25.50
2023-04-28T05:06:39.622Z,23.70
2023-04-28T05:07:41.518Z,25.88
2023-04-28T05:08:44.866Z,23.13
2023-04-28T05:09:47.075Z,23.30
2023-04-28T05:10:49.855Z,24.95
2023-04-28T05:11:52.069Z,19.38
2023-04-28T05:12:54.893Z,22.45
2023-04-28T05:13:56.671Z,35.47
2023-04-28T05:15:01.227Z,26.35
2023-04-28T05:16:03.610Z,24.70
2023-04-28T05:17:38.530Z,32.45
2023-04-28T05:18:42.185Z,21.20
2023-04-28T05:19:46.935Z,24.50
2023-04-28T05:20:49.736Z,26.20
2023-04-28T05:21:54.947Z,22.58
2023-04-28T05:22:58.363Z,19.30
2023-04-28T05:24:01.157Z,26.73
2023-04-28T05:25:07.210Z,20.17
2023-04-28T05:26:10.282Z,22.35
2023-04-28T05:27:12.080Z,32.17
2023-04-28T05:28:14.990Z,25.08
2023-04-28T05:29:18.466Z,22.70
2023-04-28T05:30:21.416Z,24.85
2023-04-28T05:31:23.819Z,22.13
2023-04-28T05:32:26.985Z,23.70
2023-04-28T05:33:28.802Z,30.27
2023-04-28T05:34:33.018Z,19.27
2023-04-28T05:35:35.968Z,22.00
2023-04-28T05:36:38.976Z,24.85
2023-04-28T05:37:45.083Z,21.10
2023-04-28T05:38:48.271Z,25.27
2023-04-28T05:39:50.090Z,20.02
2023-04-28T05:40:52.975Z,21.52
2023-04-28T05:41:54.787Z,24.83
2023-04-28T05:42:57.808Z,23.48
2023-04-28T05:43:59.685Z,19.35
2023-04-28T05:45:02.684Z,19.60
2023-04-28T05:46:09.732Z,27.08
2023-04-28T05:47:17.949Z,19.88
2023-04-28T05:48:20.069Z,27.48
2023-04-28T05:49:22.932Z,19.20
2023-04-28T05:50:26.057Z,21.05
2023-04-28T05:51:28.876Z,19.40
2023-04-28T05:52:31.199Z,21.88
2023-04-28T05:53:34.062Z,18.75
2023-04-28T05:54:35.898Z,26.05
2023-04-28T05:55:39.550Z,21.75
2023-04-28T05:56:41.336Z,23.23
2023-04-28T05:57:52.452Z,22.58
2023-04-28T05:58:55.998Z,23.50
2023-04-28T05:59:58.879Z,20.55
2023-04-28T06:01:00.714Z,22.77
2023-04-28T06:02:03.553Z,20.77
2023-04-28T06:03:05.614Z,17.23
2023-04-28T06:04:09.227Z,13.52
2023-04-28T06:05:11.663Z,26.42
2023-04-28T06:06:16.512Z,22.48
2023-04-28T06:07:18.371Z,16.83
2023-04-28T06:08:21.155Z,16.48
2023-04-28T06:09:23.010Z,13.85
2023-04-28T06:10:27.009Z,10.93
2023-04-28T06:11:28.947Z,14.77
2023-04-28T06:12:31.744Z,14.70
2023-04-28T06:13:33.519Z,14.13
2023-04-28T06:14:37.755Z,14.98
2023-04-28T06:15:39.680Z,16.00
2023-04-28T06:16:42.563Z,14.43
2023-04-28T06:17:44.457Z,13.75
2023-04-28T06:18:49.621Z,16.83
2023-04-28T06:19:54.335Z,13.13
2023-04-28T06:20:57.211Z,13.63
2023-04-28T06:22:00.373Z,13.27
2023-04-28T06:23:03.312Z,11.98
2023-04-28T06:24:05.646Z,14.80
2023-04-28T06:25:09.769Z,12.07
2023-04-28T06:26:19.358Z,12.02
2023-04-28T06:27:22.130Z,9.82
2023-04-28T06:28:24.587Z,16.50
2023-04-28T06:29:29.240Z,38.72
2023-04-28T06:30:31.425Z,38.83
2023-04-28T06:31:34.416Z,18.25
2023-04-28T06:32:36.271Z,21.75
2023-04-28T06:33:39.040Z,11.68
2023-04-28T06:34:42.245Z,13.93
2023-04-28T06:35:45.032Z,12.60
2023-04-28T06:36:47.319Z,10.85
2023-04-28T06:37:51.479Z,8.65
2023-04-28T06:38:53.262Z,12.02
2023-04-28T06:39:55.969Z,9.30
2023-04-28T06:40:57.805Z,8.50
2023-04-28T06:42:02.349Z,8.40
2023-04-28T06:43:05.685Z,10.23
2023-04-28T06:44:19.393Z,13.13
2023-04-28T06:45:21.670Z,8.07
2023-04-28T06:46:24.614Z,12.05
2023-04-28T06:47:26.701Z,12.25
2023-04-28T06:48:29.761Z,7.90
2023-04-28T06:49:31.537Z,11.23
2023-04-28T06:50:36.727Z,26.70
2023-04-28T06:51:41.363Z,13.45
2023-04-28T06:52:44.121Z,9.80
2023-04-28T06:53:47.316Z,12.98
2023-04-28T06:54:50.890Z,8.68
2023-04-28T06:55:53.011Z,10.23
2023-04-28T06:56:56.626Z,9.90
2023-04-28T06:57:59.685Z,111.53
2023-04-28T06:59:03.200Z,8.50
2023-04-28T07:00:06.475Z,8.80
2023-04-28T07:01:09.306Z,7.43
2023-04-28T07:02:11.403Z,8.68
2023-04-28T07:03:14.404Z,6.90
2023-04-28T07:04:16.796Z,8.20
2023-04-28T07:05:20.132Z,5.35
2023-04-28T07:06:23.046Z,12.38
2023-04-28T07:07:24.818Z,6.95
2023-04-28T07:08:29.801Z,8.17
2023-04-28T07:09:33.933Z,10.45
2023-04-28T07:10:36.851Z,20.30
2023-04-28T07:11:38.679Z,8.02
2023-04-28T07:12:41.439Z,8.25
2023-04-28T07:13:44.233Z,25.70
2023-04-28T07:14:46.512Z,10.20
2023-04-28T07:15:49.459Z,4.32
2023-04-28T07:16:51.225Z,9.03
2023-04-28T07:17:54.072Z,24.90
2023-04-28T07:18:56.298Z,10.87
2023-04-28T07:19:59.031Z,7.57
2023-04-28T07:21:03.402Z,12.83
2023-04-28T07:22:07.157Z,7.23
2023-04-28T07:23:10.165Z,5.13
2023-04-28T07:24:12.000Z,15.03
2023-04-28T07:25:16.321Z,11.30
2023-04-28T07:26:19.042Z,16.27
2023-04-28T07:27:20.822Z,6.27
2023-04-28T07:28:23.695Z,7.07
2023-04-28T07:29:28.821Z,8.73
2023-04-28T07:30:31.949Z,18.57
2023-04-28T07:31:33.837Z,8.37
2023-04-28T07:32:36.892Z,7.43
2023-04-28T07:33:39.624Z,6.37
2023-04-28T07:34:41.564Z,6.13
2023-04-28T07:35:44.387Z,10.00
2023-04-28T07:36:46.294Z,6.63
2023-04-28T07:37:49.243Z,7.80
2023-04-28T07:38:51.049Z,8.20
2023-04-28T07:39:53.881Z,5.68
2023-04-28T07:40:58.209Z,5.13
2023-04-28T07:41:59.982Z,5.00
2023-04-28T07:43:03.704Z,8.13
2023-04-28T07:44:08.149Z,9.40
2023-04-28T07:45:10.808Z,7.33
2023-04-28T07:46:13.767Z,5.40
2023-04-28T07:47:15.621Z,4.20
2023-04-28T07:48:18.500Z,4.13
2023-04-28T07:49:20.519Z,5.93
2023-04-28T07:50:23.492Z,5.53
2023-04-28T07:51:25.507Z,5.20
2023-04-28T07:52:28.521Z,11.30
2023-04-28T07:53:30.382Z,7.90
2023-04-28T07:54:35.108Z,11.93
2023-04-28T07:55:38.820Z,12.20
2023-04-28T07:56:42.992Z,8.27
2023-04-28T07:57:44.880Z,4.07
2023-04-28T07:58:47.982Z,7.63
2023-04-28T07:59:50.889Z,5.40
2023-04-28T08:00:52.783Z,8.77
2023-04-28T08:01:55.642Z,9.97
2023-04-28T08:02:57.877Z,5.60
2023-04-28T08:04:01.285Z,13.33
2023-04-28T08:05:04.112Z,8.37
2023-04-28T08:06:07.898Z,8.47
2023-04-28T08:07:12.515Z,5.83
2023-04-28T08:08:15.313Z,3.73
2023-04-28T08:09:18.085Z,3.73
2023-04-28T08:10:21.290Z,4.47
2023-04-28T08:11:23.201Z,8.40
2023-04-28T08:12:27.279Z,12.87
2023-04-28T08:13:30.741Z,4.93
2023-04-28T08:14:32.540Z,3.80
2023-04-28T08:15:35.353Z,8.27
2023-04-28T08:16:40.306Z,5.47
2023-04-28T08:17:43.181Z,31.40
2023-04-28T08:18:45.893Z,4.53
2023-04-28T08:19:48.977Z,5.37
2023-04-28T08:20:51.797Z,9.20
2023-04-28T08:21:53.558Z,5.18
2023-04-28T08:22:56.264Z,6.72
2023-04-28T08:23:58.112Z,7.63
2023-04-28T08:25:00.877Z,7.57
2023-04-28T08:26:03.635Z,12.53
2023-04-28T08:27:05.486Z,30.40
2023-04-28T08:28:10.072Z,8.83
2023-04-28T08:29:13.137Z,5.53
2023-04-28T08:30:16.250Z,9.37
2023-04-28T08:31:18.065Z,5.83
2023-04-28T08:32:20.859Z,8.13
2023-04-28T08:33:24.090Z,6.97
2023-04-28T08:34:27.552Z,5.03
2023-04-28T08:35:30.948Z,4.80
2023-04-28T08:36:33.762Z,18.77
2023-04-28T08:37:35.875Z,4.50
2023-04-28T08:38:38.696Z,8.50
2023-04-28T08:39:40.490Z,18.53
2023-04-28T08:40:43.673Z,17.17
2023-04-28T08:41:46.417Z,5.80
2023-04-28T08:42:49.510Z,7.03
2023-04-28T08:43:53.606Z,6.00
2023-04-28T08:44:59.486Z,7.60
2023-04-28T08:46:05.889Z,16.03
2023-04-28T08:47:13.387Z,4.30
2023-04-28T08:48:20.913Z,6.73
2023-04-28T08:49:24.788Z,7.20
2023-04-28T08:50:28.709Z,4.67
2023-04-28T08:51:35.285Z,5.33
2023-04-28T08:52:37.097Z,7.40
2023-04-28T08:54:06.202Z,6.00
2023-04-28T08:55:07.512Z,5.10
2023-04-28T08:56:10.771Z,5.87
2023-04-28T08:57:13.914Z,3.67
2023-04-28T08:58:15.721Z,6.17
2023-04-28T08:59:20.039Z,5.23
2023-04-28T09:00:21.828Z,15.73
2023-04-28T09:01:25.103Z,12.77
2023-04-28T09:02:27.205Z,5.70
2023-04-28T09:03:30.236Z,8.33
2023-04-28T09:04:32.311Z,6.03
2023-04-28T09:05:35.369Z,11.20
2023-04-28T09:06:38.390Z,8.00
2023-04-28T09:07:41.706Z,9.27
2023-04-28T09:08:43.754Z,3.90
2023-04-28T09:09:46.574Z,8.20
2023-04-28T09:10:48.528Z,4.23
2023-04-28T09:11:56.447Z,5.33
2023-04-28T09:12:59.254Z,6.47
2023-04-28T09:14:12.635Z,4.13
2023-04-28T09:15:29.502Z,9.23
2023-04-28T09:16:41.381Z,3.53
2023-04-28T09:17:51.049Z,9.23
2023-04-28T09:18:58.025Z,5.13
2023-04-28T09:20:00.133Z,4.60
2023-04-28T09:21:07.423Z,4.90
2023-04-28T09:22:24.974Z,4.73
2023-04-28T09:23:28.730Z,6.93
2023-04-28T09:24:32.002Z,7.17
2023-04-28T09:25:34.785Z,6.53
2023-04-28T09:26:50.609Z,6.87
2023-04-28T09:27:53.800Z,4.40
2023-04-28T09:29:11.678Z,8.73
2023-04-28T09:30:14.593Z,8.37
2023-04-28T09:31:25.945Z,5.33
2023-04-28T09:32:28.657Z,8.33
2023-04-28T09:33:31.759Z,8.37
2023-04-28T09:34:42.883Z,5.97
2023-04-28T09:35:47.758Z,4.37
2023-04-28T09:36:49.703Z,19.03
2023-04-28T09:37:59.503Z,13.07
2023-04-28T09:39:01.927Z,8.73
2023-04-28T09:40:07.628Z,5.27
2023-04-28T09:41:09.517Z,7.70
2023-04-28T09:42:12.447Z,6.07
2023-04-28T09:43:23.512Z,4.60
2023-04-28T09:44:26.751Z,3.40
2023-04-28T09:45:42.495Z,4.60
2023-04-28T09:46:47.473Z,5.37
2023-04-28T09:47:49.801Z,3.50
2023-04-28T09:49:01.995Z,4.90
2023-04-28T09:50:06.148Z,6.43
2023-04-28T09:51:11.614Z,7.80
2023-04-28T09:52:15.210Z,10.07
2023-04-28T09:53:18.810Z,35.63
2023-04-28T09:54:21.982Z,9.90
2023-04-28T09:55:25.604Z,6.03
2023-04-28T09:56:28.216Z,9.73
2023-04-28T09:57:32.448Z,4.93
2023-04-28T09:58:35.334Z,4.50
2023-04-28T09:59:38.607Z,6.23
2023-04-28T10:00:40.979Z,6.80
2023-04-28T10:01:46.576Z,8.93
2023-04-28T10:02:50.088Z,11.43
2023-04-28T10:03:54.401Z,14.60
2023-04-28T10:04:57.255Z,7.57
2023-04-28T10:06:00.683Z,5.43
2023-04-28T10:07:02.696Z,6.67
2023-04-28T10:08:06.350Z,16.97
2023-04-28T10:09:08.511Z,10.30
2023-04-28T10:10:14.698Z,4.67
2023-04-28T10:11:17.274Z,4.43
2023-04-28T10:12:21.328Z,6.10
2023-04-28T10:13:23.703Z,7.13
2023-04-28T10:14:26.671Z,9.40
2023-04-28T10:15:28.669Z,13.93
2023-04-28T10:16:33.148Z,5.50
2023-04-28T10:17:37.074Z,8.00
2023-04-28T10:18:40.411Z,8.43
2023-04-28T10:19:42.588Z,7.47
2023-04-28T10:20:47.447Z,5.07
2023-04-28T10:21:56.968Z,4.70
2023-04-28T10:23:09.279Z,4.53
2023-04-28T10:24:16.538Z,6.30
2023-04-28T10:25:26.504Z,5.47
2023-04-28T10:26:59.031Z,8.60
2023-04-28T10:28:04.773Z,5.03
2023-04-28T10:29:08.242Z,8.10
2023-04-28T10:30:23.086Z,6.47
2023-04-28T10:31:30.708Z,6.40
2023-04-28T10:32:33.392Z,5.80
2023-04-28T10:33:38.900Z,10.90
2023-04-28T10:34:40.913Z,7.53
2023-04-28T10:35:45.264Z,5.33
2023-04-28T10:36:48.226Z,4.30
2023-04-28T10:38:08.200Z,8.20
2023-04-28T10:39:12.847Z,5.67
2023-04-28T10:40:34.526Z,7.80
2023-04-28T10:41:37.743Z,12.10
2023-04-28T10:42:52.684Z,6.77
2023-04-28T10:43:56.091Z,6.87
2023-04-28T10:44:58.643Z,5.70
2023-04-28T10:46:06.407Z,14.30
2023-04-28T10:47:09.935Z,7.30
2023-04-28T10:48:13.044Z,14.70
2023-04-28T10:49:17.309Z,12.77
2023-04-28T10:50:21.956Z,4.17
2023-04-28T10:51:31.951Z,6.63
2023-04-28T10:52:51.368Z,6.70
2023-04-28T10:54:17.256Z,7.37
2023-04-28T10:55:36.411Z,5.30
2023-04-28T10:56:39.830Z,11.57
2023-04-28T10:57:44.369Z,13.90
2023-04-28T10:58:46.957Z,8.67
2023-04-28T10:59:51.340Z,6.23
2023-04-28T11:00:53.289Z,4.53
2023-04-28T11:01:56.351Z,6.67
2023-04-28T11:02:59.719Z,13.83
2023-04-28T11:04:08.415Z,6.13
2023-04-28T11:05:14.785Z,14.83
2023-04-28T11:06:21.489Z,15.77
2023-04-28T11:07:24.577Z,8.87
2023-04-28T11:08:36.684Z,8.90
2023-04-28T11:09:49.874Z,5.10
2023-04-28T11:11:18.394Z,9.47
2023-04-28T11:12:21.737Z,7.37
2023-04-28T11:13:27.501Z,5.80
2023-04-28T11:14:35.011Z,8.77
2023-04-28T11:15:37.759Z,6.30
2023-04-28T11:16:50.402Z,5.17
2023-04-28T11:17:57.731Z,18.23
2023-04-28T11:19:04.738Z,27.87
2023-04-28T11:20:09.516Z,19.07
2023-04-28T11:21:14.647Z,11.27
2023-04-28T11:22:18.861Z,12.40
2023-04-28T11:23:20.955Z,5.03
2023-04-28T11:24:25.556Z,5.57
2023-04-28T11:25:27.450Z,4.73
2023-04-28T11:26:30.531Z,5.27
2023-04-28T11:27:33.945Z,4.63
2023-04-28T11:28:38.038Z,4.80
2023-04-28T11:29:42.835Z,6.90
2023-04-28T11:30:44.629Z,6.30
2023-04-28T11:31:51.257Z,4.83
2023-04-28T11:32:53.210Z,8.47
2023-04-28T11:34:00.300Z,5.67
2023-04-28T11:35:04.300Z,10.33
2023-04-28T11:36:07.140Z,9.10
2023-04-28T11:37:16.681Z,6.70
2023-04-28T11:38:18.596Z,5.93
2023-04-28T11:39:28.479Z,13.07
2023-04-28T11:40:30.366Z,7.17
2023-04-28T11:41:34.328Z,9.27
2023-04-28T11:42:36.070Z,6.53
2023-04-28T11:43:46.879Z,8.33
2023-04-28T11:44:52.295Z,17.87
2023-04-28T11:45:54.295Z,24.83
2023-04-28T11:47:00.629Z,9.13
2023-04-28T11:48:21.027Z,6.70
2023-04-28T11:49:25.311Z,7.53
2023-04-28T11:50:35.883Z,6.07
2023-04-28T11:51:39.712Z,8.40
2023-04-28T11:52:53.189Z,6.90
2023-04-28T11:53:55.802Z,5.60
2023-04-28T11:55:00.797Z,7.20
2023-04-28T11:56:08.032Z,7.40
2023-04-28T11:57:18.211Z,6.60
2023-04-28T11:58:22.357Z,11.43
2023-04-28T11:59:26.978Z,8.73
2023-04-28T12:00:29.745Z,8.83
2023-04-28T12:01:34.044Z,9.67
2023-04-28T12:02:37.027Z,10.37
2023-04-28T12:03:45.819Z,5.90
2023-04-28T12:04:50.630Z,6.73
2023-04-28T12:05:52.601Z,7.40
2023-04-28T12:07:07.841Z,7.67
2023-04-28T12:08:11.316Z,4.67
2023-04-28T12:09:17.998Z,16.80
2023-04-28T12:10:21.903Z,6.60
2023-04-28T12:11:25.638Z,20.00
2023-04-28T12:13:39.034Z,5.53
2023-04-28T12:14:58.075Z,7.70
2023-04-28T12:16:03.655Z,7.03
2023-04-28T12:17:06.403Z,4.77
2023-04-28T12:18:10.645Z,11.73
2023-04-28T12:19:15.162Z,3.80
2023-04-28T12:20:35.757Z,4.17
2023-04-28T12:21:38.874Z,13.10
2023-04-28T12:22:45.837Z,15.73
2023-04-28T12:23:48.944Z,6.40
2023-04-28T12:25:07.990Z,6.87
2023-04-28T12:26:10.099Z,6.50
2023-04-28T12:27:21.588Z,19.80
2023-04-28T12:28:23.417Z,6.70
2023-04-28T12:29:43.078Z,5.50
2023-04-28T12:30:45.418Z,10.43
2023-04-28T12:31:52.692Z,5.10
2023-04-28T12:32:56.052Z,13.20
2023-04-28T12:33:58.994Z,7.40
2023-04-28T12:35:02.113Z,4.60
2023-04-28T12:36:04.630Z,9.23
2023-04-28T12:37:07.778Z,8.60
2023-04-28T12:38:13.904Z,5.73
2023-04-28T12:39:19.776Z,5.00
2023-04-28T12:40:22.945Z,4.23
2023-04-28T12:41:25.366Z,4.60
2023-04-28T12:42:29.224Z,12.70
2023-04-28T12:43:31.277Z,8.30
2023-04-28T12:44:36.519Z,6.80
2023-04-28T12:45:39.022Z,8.90
2023-04-28T12:46:42.032Z,21.33
2023-04-28T12:47:44.075Z,8.37
2023-04-28T12:48:46.919Z,4.80
2023-04-28T12:49:50.755Z,6.80
2023-04-28T12:50:53.554Z,11.90
2023-04-28T12:51:55.507Z,14.03
2023-04-28T12:52:58.571Z,7.90
2023-04-28T12:54:00.575Z,4.57
2023-04-28T12:55:05.013Z,6.47
2023-04-28T12:56:06.905Z,8.10
2023-04-28T12:57:09.659Z,5.03
2023-04-28T12:58:11.538Z,6.67
2023-04-28T12:59:14.269Z,4.13
2023-04-28T13:00:16.386Z,10.17
2023-04-28T13:01:19.258Z,4.80
2023-04-28T13:02:21.213Z,11.23
2023-04-28T13:03:24.159Z,6.37
2023-04-28T13:04:27.409Z,5.83
2023-04-28T13:05:29.923Z,10.97
2023-04-28T13:06:32.925Z,6.80
2023-04-28T13:07:35.810Z,5.37
2023-04-28T13:08:37.596Z,7.17
2023-04-28T13:09:41.316Z,5.97
2023-04-28T13:10:45.596Z,7.87
2023-04-28T13:11:48.334Z,8.50
2023-04-28T13:12:50.113Z,5.07
2023-04-28T13:13:53.271Z,6.80
2023-04-28T13:14:55.022Z,8.87
2023-04-28T13:15:57.762Z,7.43
2023-04-28T13:17:01.598Z,5.80
2023-04-28T13:18:03.617Z,4.90
2023-04-28T13:19:09.520Z,7.47
2023-04-28T13:20:11.955Z,4.40
2023-04-28T13:21:14.726Z,4.07
2023-04-28T13:22:16.716Z,3.77
2023-04-28T13:23:19.563Z,5.13
2023-04-28T13:24:22.430Z,5.47
2023-04-28T13:25:24.195Z,7.93
2023-04-28T13:26:28.351Z,6.17
2023-04-28T13:27:30.543Z,10.80
2023-04-28T13:28:33.308Z,9.40
2023-04-28T13:29:35.859Z,5.83
2023-04-28T13:30:38.570Z,33.60
2023-04-28T13:31:40.483Z,18.80
2023-04-28T13:32:43.263Z,12.03
2023-04-28T13:33:45.468Z,7.23
2023-04-28T13:34:48.437Z,6.37
2023-04-28T13:35:50.517Z,18.57
2023-04-28T13:36:54.352Z,4.60
2023-04-28T13:38:01.635Z,4.57
2023-04-28T13:39:06.237Z,6.60
2023-04-28T13:40:09.407Z,6.07
2023-04-28T13:41:12.102Z,7.13
2023-04-28T13:42:16.102Z,10.60
2023-04-28T13:43:18.842Z,5.30
2023-04-28T13:44:21.189Z,4.27
2023-04-28T13:45:24.039Z,5.83
2023-04-28T13:46:25.806Z,5.57
2023-04-28T13:47:28.986Z,6.40
2023-04-28T13:48:30.806Z,7.40
2023-04-28T13:49:33.580Z,9.17
2023-04-28T13:50:36.177Z,3.87
2023-04-28T13:51:40.076Z,5.23
2023-04-28T13:52:41.865Z,5.63
2023-04-28T13:53:44.585Z,5.23
2023-04-28T13:54:46.792Z,6.50
2023-04-28T13:55:51.609Z,5.27
2023-04-28T13:56:55.078Z,9.30
2023-04-28T13:58:02.598Z,10.47
2023-04-28T13:59:05.428Z,11.53